KDLN/DLN METAR and TAF weather

Enter ICAO airport designator
Station Type Date Time Source
KDLN METAR 2019/02/23 16:53 UTC NOAA

KDLN 231653Z AUTO 22012KT 10SM SCT100 BKN120 M08/M13 A2994 RMK AO2 SLP212 T10831133


Station Type Date Time Source
KDLN Decoded METAR 2019/02/23 16:53 UTC NOAA

DILLON AIRPORT, MT, United States (KDLN) 45-15N 112-33W 1591M
Feb 23, 2019 - 11:53 AM EST / 2019.02.23 1653 UTC
Wind: from the SW (220 degrees) at 14 MPH (12 KT):0
Visibility: 10 mile(s):0
Sky conditions: mostly cloudy
Temperature: 17.1 F (-8.3 C)
Windchill: 3 F (-16 C):1
Dew Point: 8.1 F (-13.3 C)
Relative Humidity: 67%
Pressure (altimeter): 29.94 in. Hg (1013 hPa)
ob: KDLN 231653Z AUTO 22012KT 10SM SCT100 BKN120 M08/M13 A2994 RMK AO2 SLP212 T10831133
cycle: 17

Station Type Date Time Source
KDLN TAF UTC NOAA

Error!


Example: see airport list